NK76 weather

Grammar Airport
Geneva, New York, United States

Public forecast

Using degrees Fahrenheit for public forecast. Weather courtesy of forecast.io.

METAR (pilot weather report)

Closest report is Penn Yan Airport, 14.7 nm (27.3 km) S. Retrieved 2019/05/19 13:53 UTC (41 minutes ago):

KPEO 191353Z AUTO 20011KT 10SM CLR 24/17 A2992 RMK AO2 SLP127 T02390172

TAF (pilot weather forecast)

Closest forecast is Greater Rochester International Airport, 30.7 nm (56.9 km) WNW. Retrieved 2019/05/19 12:22 UTC (2 hours ago):

TAF KROC 191120Z 1912/2012 20012G22KT P6SM SCT100 FM191400 23008KT P6SM BKN050 FM191700 23005KT 6SM -SHRA VCTS BKN040CB FM200000 20008KT P6SM VCSH BKN100 WS015/25040KT